Terminal Aerodrome Forecast
Issued by NWS

Home | Current Version | Previous Version | Text Only | Print | Product List | Glossary On
Versions: 1 2 3 4 5 6 7 8 9 10 11 12 13 14 15 16 17 18 19 20 21 22
978
FTUS43 KILX 291905 AAA
TAFCMI
TAF AMD
KCMI 291905Z 2919/3018 08012G20KT P6SM VCSH SCT015 BKN120
      TEMPO 2919/2921 6SM -RA BR
     FM300700 12014G22KT 4SM -RA BR OVC015
     FM301000 12014G24KT 4SM -RA VCTS OVC015CB
     FM301600 13014KT 6SM BR VCSH OVC008=

USA.gov is the U.S. government's official web portal to all federal, state and local government web resources and services.